Portada
METAR-TAF:

METAR-TAF

Aeropuertos :

Kansas City, Misuri, Estados Unidos

Aeropuerto Internacional de Kansas City

latitud: 39-17-50N, longitud: 094-43-50W, altitud: 312 m

Observación

El informe se hizo hace 1 hora y 5 minutos, a las 18:53 UTC
Viento 12 kt del sur-suroeste
Temperatura 1°C
Humedad 51%
Presión 1021 hPa
Visibilidad: 16.1 km
Cielo despejado

METAR: KMCI 181853Z 21012KT 10SM CLR 01/M08 A3014 RMK AO2 SLP218 T00111083

Hora: 13:58 (19:58 UTC)

Pronóstico

El informe se hizo hace 2 horas y 38 minutos, a las 17:20 UTC
Pronóstico válido del 18 a las 18 UTC al 19 a las 18 UTC
Viento 12 kt del sur-suroeste
Visibilidad: 10 km
Nubes dispersas a una altura de 25000 ft

TAF: KMCI 181720Z 1818/1918 21012KT P6SM SCT250

Observaciones y pronósticos meteorológicos de más de 4000 aeropuertos (mensajes METAR y TAF).

Los puntos amarillos y rojos representan las estaciones disponibles.

Ponga el ratón en el punto deseado para ver el nombre de la estación.

Haga clic para ver las observaciones y los pronósticos meteorológicos.

Para cambiar el mapa : haga clic en los botones verdes con una cruz de color negro para hacer un zoom, en el botón verde con un guión para alejar o en las flechas verdes para mapas adyacentes.


METAR-TAF: